createdAt,value
2019-05-12T00:00:48.348Z,96858.69
2019-05-12T00:01:55.734Z,96853.61
2019-05-12T00:03:03.304Z,96862.97
2019-05-12T00:04:10.529Z,96862.80
2019-05-12T00:05:18.766Z,96857.80
2019-05-12T00:06:28.265Z,96865.41
2019-05-12T00:07:38.198Z,96861.34
2019-05-12T00:08:45.567Z,96861.16
2019-05-12T00:09:53.182Z,96859.13
2019-05-12T00:11:00.423Z,96857.50
2019-05-12T00:12:08.302Z,96864.89
2019-05-12T00:13:15.639Z,96865.25
2019-05-12T00:14:24.833Z,96860.42
2019-05-12T00:15:32.061Z,96857.50
2019-05-12T00:16:39.643Z,96866.55
2019-05-12T00:17:48.109Z,96863.59
2019-05-12T00:18:58.387Z,96868.39
2019-05-12T00:20:05.264Z,96864.61
2019-05-12T00:21:12.849Z,96867.38
2019-05-12T00:22:22.055Z,96852.87
2019-05-12T00:23:31.184Z,96861.55
2019-05-12T00:24:38.622Z,96865.52
2019-05-12T00:25:47.994Z,96869.53
2019-05-12T00:26:58.121Z,96877.75
2019-05-12T00:28:07.823Z,96870.54
2019-05-12T00:29:15.294Z,96867.30
2019-05-12T00:30:34.822Z,96876.91
2019-05-12T00:31:42.038Z,96871.45
2019-05-12T00:32:49.648Z,96873.05
2019-05-12T00:33:58.701Z,96876.19
2019-05-12T00:35:07.819Z,96885.23
2019-05-12T00:36:15.316Z,96877.94
2019-05-12T00:37:22.919Z,96886.24
2019-05-12T00:38:30.141Z,96886.33
2019-05-12T00:39:38.246Z,96883.13
2019-05-12T00:40:47.697Z,96882.30
2019-05-12T00:41:54.774Z,96889.30
2019-05-12T00:43:03.472Z,96892.90
2019-05-12T00:44:11.040Z,96889.02
2019-05-12T00:45:18.235Z,96892.98
2019-05-12T00:46:27.835Z,96891.33
2019-05-12T00:47:34.726Z,96899.16
2019-05-12T00:48:42.299Z,96893.16
2019-05-12T00:49:50.351Z,96895.38
2019-05-12T00:50:58.502Z,96887.71
2019-05-12T00:52:07.960Z,96901.47
2019-05-12T00:53:15.211Z,96897.25
2019-05-12T00:54:22.415Z,96902.13
2019-05-12T00:55:30.000Z,96904.34
2019-05-12T00:56:39.246Z,96901.84
2019-05-12T00:57:48.454Z,96907.10
2019-05-12T00:58:57.903Z,96904.61
2019-05-12T01:00:05.445Z,96913.28
2019-05-12T01:01:12.835Z,96908.20
2019-05-12T01:02:20.391Z,96916.87
2019-05-12T01:03:28.047Z,96916.98
2019-05-12T01:04:38.015Z,96926.03
2019-05-12T01:05:44.663Z,96928.24
2019-05-12T01:06:52.249Z,96930.91
2019-05-12T01:08:00.424Z,96927.13
2019-05-12T01:09:09.137Z,96926.38
2019-05-12T01:10:17.970Z,96933.84
2019-05-12T01:11:28.328Z,96933.92
2019-05-12T01:12:34.723Z,96930.14
2019-05-12T01:13:42.277Z,96940.01
2019-05-12T01:14:49.503Z,96942.59
2019-05-12T01:15:58.647Z,96936.71
2019-05-12T01:17:08.248Z,96934.84
2019-05-12T01:18:15.337Z,96944.00
2019-05-12T01:19:22.530Z,96936.80
2019-05-12T01:20:30.146Z,96945.06
2019-05-12T01:21:37.850Z,96946.81
2019-05-12T01:22:45.767Z,96944.85
2019-05-12T01:23:59.797Z,96945.77
2019-05-12T01:25:02.559Z,96944.85
2019-05-12T01:26:09.844Z,96941.44
2019-05-12T01:27:18.068Z,96946.14
2019-05-12T01:28:27.673Z,96949.94
2019-05-12T01:29:34.673Z,96951.60
2019-05-12T01:30:42.137Z,96957.69
2019-05-12T01:31:55.869Z,96953.89
2019-05-12T01:33:03.069Z,96959.89
2019-05-12T01:34:10.640Z,96958.23
2019-05-12T01:35:18.488Z,96968.94
2019-05-12T01:36:28.492Z,96968.56
2019-05-12T01:37:35.227Z,96974.64
2019-05-12T01:38:42.797Z,96979.63
2019-05-12T01:39:50.023Z,96976.76
2019-05-12T01:40:58.751Z,96980.26
2019-05-12T01:42:05.978Z,96979.13
2019-05-12T01:43:13.583Z,96978.76
2019-05-12T01:44:20.786Z,96979.67
2019-05-12T01:45:28.970Z,96980.96
2019-05-12T01:46:38.292Z,96977.17
2019-05-12T01:47:45.603Z,96980.70
2019-05-12T01:48:52.826Z,96983.37
2019-05-12T01:50:00.410Z,96985.95
2019-05-12T01:51:08.366Z,96982.53
2019-05-12T01:52:17.824Z,96986.86
2019-05-12T01:53:25.146Z,96991.20
2019-05-12T01:54:32.912Z,96994.70
2019-05-12T01:55:40.212Z,96999.86
2019-05-12T01:56:48.330Z,97001.98
2019-05-12T01:57:57.734Z,97000.23
2019-05-12T01:59:04.939Z,97004.56
2019-05-12T02:00:13.829Z,97012.31
2019-05-12T02:01:21.418Z,97011.48
2019-05-12T02:02:28.730Z,97014.22
2019-05-12T02:03:37.693Z,97017.19
2019-05-12T02:05:09.707Z,97020.14
2019-05-12T02:06:18.430Z,97023.94
2019-05-12T02:07:28.002Z,97021.59
2019-05-12T02:08:41.254Z,97032.30
2019-05-12T02:09:48.829Z,97030.09
2019-05-12T02:11:14.923Z,97033.97
2019-05-12T02:12:22.112Z,97035.72
2019-05-12T02:13:29.700Z,97034.42
2019-05-12T02:14:38.185Z,97041.17
2019-05-12T02:15:45.970Z,97036.39
2019-05-12T02:16:53.181Z,97043.59
2019-05-12T02:18:00.752Z,97047.36
2019-05-12T02:19:09.131Z,97056.05
2019-05-12T02:20:19.434Z,97057.34
2019-05-12T02:21:27.967Z,97060.92
2019-05-12T02:22:35.642Z,97064.04
2019-05-12T02:23:42.851Z,97066.78
2019-05-12T02:24:50.440Z,97066.86
2019-05-12T02:25:58.565Z,97070.81
2019-05-12T02:27:08.184Z,97070.81
2019-05-12T02:28:15.129Z,97080.31
2019-05-12T02:29:22.761Z,97073.13
2019-05-12T02:30:30.822Z,97076.09
2019-05-12T02:31:39.691Z,97079.48
2019-05-12T02:32:52.496Z,97079.48
2019-05-12T02:33:56.764Z,97071.73
2019-05-12T02:35:05.782Z,97085.02
2019-05-12T02:36:15.075Z,97081.98
2019-05-12T02:37:22.269Z,97087.60
2019-05-12T02:38:29.840Z,97088.52
2019-05-12T02:39:37.128Z,97092.39
2019-05-12T02:40:44.981Z,97097.09
2019-05-12T02:41:54.230Z,97100.89
2019-05-12T02:43:04.913Z,97107.27
2019-05-12T02:44:14.646Z,97108.02
2019-05-12T02:45:20.871Z,97106.73
2019-05-12T02:46:28.134Z,97105.81
2019-05-12T02:47:35.790Z,97114.77
2019-05-12T02:48:44.993Z,97116.44
2019-05-12T02:49:54.491Z,97121.98
2019-05-12T02:51:05.273Z,97115.53
2019-05-12T02:52:11.485Z,97121.15
2019-05-12T02:53:18.695Z,97121.23
2019-05-12T02:54:45.967Z,97131.26
2019-05-12T02:55:36.163Z,97134.22
2019-05-12T02:56:46.601Z,97132.63
2019-05-12T02:57:56.002Z,97134.45
2019-05-12T02:59:05.519Z,97135.93
2019-05-12T03:00:16.038Z,97132.97
2019-05-12T03:01:24.641Z,97133.88
2019-05-12T03:02:34.833Z,97137.38
2019-05-12T03:03:46.007Z,97139.66
2019-05-12T03:04:55.949Z,97140.57
2019-05-12T03:06:05.724Z,97147.10
2019-05-12T03:07:15.251Z,97141.03
2019-05-12T03:08:25.949Z,97153.10
2019-05-12T03:09:35.155Z,97155.23
2019-05-12T03:10:45.002Z,97159.10
2019-05-12T03:11:55.632Z,97156.89
2019-05-12T03:13:04.466Z,97158.19
2019-05-12T03:14:15.335Z,97162.44
2019-05-12T03:15:21.188Z,97168.06
2019-05-12T03:16:28.410Z,97166.31
2019-05-12T03:17:35.998Z,97166.69
2019-05-12T03:18:45.023Z,97170.56
2019-05-12T03:19:55.599Z,97174.81
2019-05-12T03:21:05.309Z,97176.56
2019-05-12T03:22:13.907Z,97183.47
2019-05-12T03:23:19.840Z,97180.97
2019-05-12T03:24:27.410Z,97183.63
2019-05-12T03:25:36.291Z,97186.20
2019-05-12T03:26:45.029Z,97182.87
2019-05-12T03:27:54.511Z,97190.69
2019-05-12T03:29:01.648Z,97193.38
2019-05-12T03:30:11.827Z,97195.13
2019-05-12T03:31:25.572Z,97194.37
2019-05-12T03:32:28.350Z,97203.86
2019-05-12T03:33:43.375Z,97194.21
2019-05-12T03:34:47.422Z,97195.76
2019-05-12T03:36:00.240Z,97206.31
2019-05-12T03:37:07.872Z,97195.75
2019-05-12T03:38:14.793Z,97208.53
2019-05-12T03:39:24.814Z,97209.97
2019-05-12T03:40:30.815Z,97216.64
2019-05-12T03:41:38.052Z,97221.88
2019-05-12T03:42:45.730Z,97213.40
2019-05-12T03:43:55.002Z,97218.56
2019-05-12T03:45:04.713Z,97224.17
2019-05-12T03:46:11.158Z,97224.70
2019-05-12T03:47:18.762Z,97224.31
2019-05-12T03:48:25.968Z,97234.64
2019-05-12T03:49:34.792Z,97236.45
2019-05-12T03:50:45.669Z,97241.61
2019-05-12T03:51:54.191Z,97245.94
2019-05-12T03:53:06.168Z,97238.72
2019-05-12T03:54:09.600Z,97247.30
2019-05-12T03:55:30.962Z,97250.78
2019-05-12T03:56:26.444Z,97252.91
2019-05-12T03:57:34.518Z,97254.20
2019-05-12T03:58:45.209Z,97255.88
2019-05-12T03:59:54.210Z,97261.03
2019-05-12T04:01:00.647Z,97264.83
2019-05-12T04:02:07.864Z,97272.56
2019-05-12T04:03:15.722Z,97264.37
2019-05-12T04:04:24.432Z,97271.66
2019-05-12T04:05:34.843Z,97275.84
2019-05-12T04:06:41.172Z,97278.35
2019-05-12T04:07:48.744Z,97277.52
2019-05-12T04:08:59.776Z,97285.33
2019-05-12T04:10:05.570Z,97279.71
2019-05-12T04:11:14.718Z,97279.33
2019-05-12T04:12:25.345Z,97283.72
2019-05-12T04:13:33.958Z,97290.63
2019-05-12T04:14:40.576Z,97293.28
2019-05-12T04:15:47.776Z,97300.56
2019-05-12T04:16:55.416Z,97297.45
2019-05-12T04:18:05.550Z,97299.52
2019-05-12T04:19:14.642Z,97301.02
2019-05-12T04:20:20.856Z,97306.03
2019-05-12T04:21:28.434Z,97302.09
2019-05-12T04:22:35.637Z,97304.08
2019-05-12T04:23:44.374Z,97309.09
2019-05-12T04:24:54.897Z,97303.23
2019-05-12T04:26:08.563Z,97306.95
2019-05-12T04:27:09.912Z,97303.40
2019-05-12T04:28:17.483Z,97305.73
2019-05-12T04:29:25.138Z,97300.04
2019-05-12T04:30:35.503Z,97299.89
2019-05-12T04:31:44.258Z,97299.37
2019-05-12T04:32:51.130Z,97300.02
2019-05-12T04:33:58.326Z,97304.66
2019-05-12T04:35:06.362Z,97304.13
2019-05-12T04:36:15.030Z,97303.08
2019-05-12T04:37:24.944Z,97312.04
2019-05-12T04:38:31.717Z,97311.97
2019-05-12T04:39:39.273Z,97309.66
2019-05-12T04:40:46.470Z,97313.84
2019-05-12T04:41:55.193Z,97313.84
2019-05-12T04:43:05.792Z,97320.60
2019-05-12T04:44:15.151Z,97321.81
2019-05-12T04:45:21.254Z,97326.07
2019-05-12T04:46:28.825Z,97332.08
2019-05-12T04:47:36.234Z,97328.58
2019-05-12T04:48:45.386Z,97323.88
2019-05-12T04:49:54.596Z,97333.36
2019-05-12T04:51:04.921Z,97328.73
2019-05-12T04:52:11.479Z,97333.97
2019-05-12T04:53:19.111Z,97328.50
2019-05-12T04:54:26.503Z,97336.24
2019-05-12T04:55:35.569Z,97330.70
2019-05-12T04:56:44.564Z,97330.88
2019-05-12T04:57:54.552Z,97328.37
2019-05-12T04:59:04.718Z,97334.44
2019-05-12T05:00:15.405Z,97332.39
2019-05-12T05:01:20.826Z,97323.80
2019-05-12T05:02:28.429Z,97329.95
2019-05-12T05:03:35.831Z,97334.73
2019-05-12T05:04:44.161Z,97335.64
2019-05-12T05:05:54.750Z,97340.34
2019-05-12T05:07:01.110Z,97345.97
2019-05-12T05:08:08.746Z,97340.52
2019-05-12T05:09:16.376Z,97340.14
2019-05-12T05:10:25.106Z,97338.47
2019-05-12T05:11:34.656Z,97348.41
2019-05-12T05:12:44.865Z,97351.00
2019-05-12T05:13:54.594Z,97349.32
2019-05-12T05:15:00.919Z,97350.69
2019-05-12T05:16:08.493Z,97349.77
2019-05-12T05:17:16.096Z,97353.19
2019-05-12T05:18:23.956Z,97347.13
2019-05-12T05:19:33.696Z,97351.45
2019-05-12T05:20:40.929Z,97351.45
2019-05-12T05:21:48.491Z,97353.19
2019-05-12T05:22:56.107Z,97355.78
2019-05-12T05:24:04.041Z,97356.54
2019-05-12T05:25:14.225Z,97356.47
2019-05-12T05:26:27.343Z,97360.69
2019-05-12T05:27:30.356Z,97358.95
2019-05-12T05:28:37.958Z,97354.16
2019-05-12T05:29:45.825Z,97368.75
2019-05-12T05:30:53.589Z,97362.30
2019-05-12T05:32:03.403Z,97366.17
2019-05-12T05:33:10.517Z,97367.45
2019-05-12T05:34:18.088Z,97374.36
2019-05-12T05:35:29.001Z,97369.20
2019-05-12T05:36:35.212Z,97374.75
2019-05-12T05:37:44.278Z,97373.00
2019-05-12T05:38:59.689Z,97379.84
2019-05-12T05:40:03.965Z,97382.88
2019-05-12T05:41:10.829Z,97383.33
2019-05-12T05:42:21.996Z,97390.62
2019-05-12T05:43:27.739Z,97369.97
2019-05-12T05:44:37.973Z,97384.62
2019-05-12T05:45:45.035Z,97389.33
2019-05-12T05:46:54.627Z,97385.91
2019-05-12T05:48:05.453Z,97388.49
2019-05-12T05:49:13.212Z,97391.59
2019-05-12T05:50:24.987Z,97391.67
2019-05-12T05:51:29.748Z,97395.27
2019-05-12T05:52:38.643Z,97387.66
2019-05-12T05:53:49.888Z,97392.37
2019-05-12T05:54:55.895Z,97389.86
2019-05-12T05:56:04.138Z,97401.86
2019-05-12T05:57:14.235Z,97403.46
2019-05-12T05:58:21.089Z,97399.91
2019-05-12T05:59:35.871Z,97409.29
2019-05-12T06:00:39.418Z,97397.67
2019-05-12T06:01:51.905Z,97402.83
2019-05-12T06:02:56.528Z,97406.18
2019-05-12T06:04:08.390Z,97406.56
2019-05-12T06:05:14.416Z,97405.59
2019-05-12T06:06:23.765Z,97414.94
2019-05-12T06:07:35.790Z,97412.21
2019-05-12T06:08:40.730Z,97415.08
2019-05-12T06:09:48.304Z,97417.06
2019-05-12T06:10:55.887Z,97417.75
2019-05-12T06:12:07.557Z,97424.91
2019-05-12T06:13:14.383Z,97420.85
2019-05-12T06:14:23.581Z,97425.03
2019-05-12T06:15:35.733Z,97428.77
2019-05-12T06:16:43.220Z,97431.73
2019-05-12T06:17:50.044Z,97432.50
2019-05-12T06:18:57.630Z,97431.10
2019-05-12T06:20:05.402Z,97434.00
2019-05-12T06:21:13.722Z,97440.77
2019-05-12T06:22:23.391Z,97440.62
2019-05-12T06:23:34.815Z,97437.12
2019-05-12T06:24:40.076Z,97437.92
2019-05-12T06:25:51.637Z,97442.53
2019-05-12T06:27:00.626Z,97437.22
2019-05-12T06:28:08.816Z,97440.11
2019-05-12T06:29:20.176Z,97436.54
2019-05-12T06:30:24.803Z,97433.50
2019-05-12T06:31:33.428Z,97434.16
2019-05-12T06:32:49.624Z,97440.09
2019-05-12T06:33:50.504Z,97434.16
2019-05-12T06:35:01.498Z,97438.03
2019-05-12T06:36:07.627Z,97438.14
2019-05-12T06:37:17.211Z,97437.83
2019-05-12T06:38:24.566Z,97440.87
2019-05-12T06:39:34.208Z,97450.90
2019-05-12T06:40:44.710Z,97451.42
2019-05-12T06:41:50.705Z,97449.75
2019-05-12T06:43:01.062Z,97452.52
2019-05-12T06:44:14.896Z,97447.91
2019-05-12T06:45:18.996Z,97452.70
2019-05-12T06:46:26.580Z,97453.68
2019-05-12T06:47:39.308Z,97452.39
2019-05-12T06:48:45.524Z,97457.03
2019-05-12T06:49:54.716Z,97454.06
2019-05-12T06:51:04.057Z,97460.91
2019-05-12T06:52:11.719Z,97453.16
2019-05-12T06:53:20.152Z,97457.41
2019-05-12T06:54:28.579Z,97459.61
2019-05-12T06:55:39.122Z,97457.94
2019-05-12T06:56:50.011Z,97461.73
2019-05-12T06:57:54.893Z,97463.87
2019-05-12T06:59:09.806Z,97459.61
2019-05-12T07:00:14.431Z,97464.33
2019-05-12T07:01:24.041Z,97463.42
2019-05-12T07:02:37.146Z,97462.96
2019-05-12T07:03:40.434Z,97467.30
2019-05-12T07:04:56.338Z,97463.42
2019-05-12T07:05:57.314Z,97470.30
2019-05-12T07:07:04.913Z,97468.09
2019-05-12T07:08:20.133Z,97470.95
2019-05-12T07:09:24.993Z,97473.01
2019-05-12T07:10:42.108Z,97473.39
2019-05-12T07:11:44.862Z,97476.36
2019-05-12T07:12:58.831Z,97474.16
2019-05-12T07:14:04.119Z,97475.83
2019-05-12T07:15:09.852Z,97471.88
2019-05-12T07:16:22.223Z,97476.06
2019-05-12T07:17:35.682Z,97482.35
2019-05-12T07:18:44.956Z,97482.66
2019-05-12T07:19:56.398Z,97482.59
2019-05-12T07:21:04.016Z,97486.31
2019-05-12T07:22:19.953Z,97487.08
2019-05-12T07:23:25.846Z,97493.47
2019-05-12T07:24:29.672Z,97487.36
2019-05-12T07:25:37.266Z,97492.84
2019-05-12T07:26:47.953Z,97500.45
2019-05-12T07:28:00.288Z,97499.91
2019-05-12T07:29:04.397Z,97505.47
2019-05-12T07:30:13.649Z,97498.48
2019-05-12T07:31:23.350Z,97501.90
2019-05-12T07:32:34.286Z,97501.34
2019-05-12T07:33:45.031Z,97501.34
2019-05-12T07:34:50.995Z,97499.21
2019-05-12T07:36:01.318Z,97504.38
2019-05-12T07:37:10.537Z,97500.05
2019-05-12T07:38:21.289Z,97504.77
2019-05-12T07:39:30.275Z,97507.73
2019-05-12T07:40:38.174Z,97507.66
2019-05-12T07:41:50.818Z,97516.63
2019-05-12T07:42:58.990Z,97508.87
2019-05-12T07:44:06.679Z,97514.05
2019-05-12T07:45:20.582Z,97522.19
2019-05-12T07:46:27.806Z,97519.59
2019-05-12T07:47:34.147Z,97512.68
2019-05-12T07:48:48.882Z,97515.65
2019-05-12T07:49:53.604Z,97524.23
2019-05-12T07:51:00.737Z,97523.78
2019-05-12T07:52:08.572Z,97528.88
2019-05-12T07:53:16.144Z,97527.52
2019-05-12T07:54:24.060Z,97532.58
2019-05-12T07:55:33.813Z,97536.77
2019-05-12T07:56:43.934Z,97537.16
2019-05-12T07:57:55.227Z,97536.70
2019-05-12T07:58:59.654Z,97537.53
2019-05-12T08:00:11.528Z,97539.66
2019-05-12T08:01:17.871Z,97535.25
2019-05-12T08:02:31.659Z,97539.06
2019-05-12T08:03:34.740Z,97543.32
2019-05-12T08:04:44.026Z,97545.83
2019-05-12T08:05:57.437Z,97541.39
2019-05-12T08:07:03.831Z,97543.45
2019-05-12T08:08:11.186Z,97544.67
2019-05-12T08:09:24.035Z,97555.39
2019-05-12T08:10:28.040Z,97556.16
2019-05-12T08:11:38.635Z,97556.09
2019-05-12T08:12:44.908Z,97548.98
2019-05-12T08:13:54.238Z,97554.00
2019-05-12T08:15:05.459Z,97564.20
2019-05-12T08:16:11.160Z,97568.39
2019-05-12T08:17:19.739Z,97564.36
2019-05-12T08:18:30.616Z,97567.22
2019-05-12T08:19:36.756Z,97570.49
2019-05-12T08:20:44.345Z,97572.93
2019-05-12T08:21:53.748Z,97569.81
2019-05-12T08:23:05.856Z,97576.09
2019-05-12T08:24:10.517Z,97567.88
2019-05-12T08:25:18.774Z,97568.71
2019-05-12T08:26:27.357Z,97567.49
2019-05-12T08:27:39.207Z,97558.55
2019-05-12T08:28:44.395Z,97564.10
2019-05-12T08:30:00.837Z,97570.27
2019-05-12T08:31:03.631Z,97563.80
2019-05-12T08:32:16.025Z,97567.60
2019-05-12T08:33:20.710Z,97561.20
2019-05-12T08:34:28.347Z,97568.14
2019-05-12T08:35:38.399Z,97568.52
2019-05-12T08:36:53.117Z,97571.48
2019-05-12T08:37:54.652Z,97570.58
2019-05-12T08:39:05.617Z,97572.22
2019-05-12T08:40:11.517Z,97574.65
2019-05-12T08:41:19.114Z,97576.70
2019-05-12T08:42:26.718Z,97581.73
2019-05-12T08:43:34.427Z,97577.77
2019-05-12T08:44:44.000Z,97581.92
2019-05-12T08:45:53.454Z,97585.36
2019-05-12T08:47:00.629Z,97588.78
2019-05-12T08:48:17.037Z,97583.60
2019-05-12T08:49:17.572Z,97578.80
2019-05-12T08:50:31.601Z,97583.06
2019-05-12T08:51:34.472Z,97587.71
2019-05-12T08:52:44.211Z,97591.59
2019-05-12T08:53:53.975Z,97582.91
2019-05-12T08:55:00.886Z,97589.77
2019-05-12T08:56:12.893Z,97591.86
2019-05-12T08:57:17.796Z,97596.50
2019-05-12T08:58:33.511Z,97604.08
2019-05-12T08:59:34.650Z,97598.83
2019-05-12T09:00:50.126Z,97602.63
2019-05-12T09:01:54.124Z,97603.77
2019-05-12T09:03:03.598Z,97603.23
2019-05-12T09:04:15.799Z,97600.11
2019-05-12T09:05:28.006Z,97599.09
2019-05-12T09:06:30.460Z,97605.03
2019-05-12T09:07:40.004Z,97607.55
2019-05-12T09:08:49.445Z,97607.01
2019-05-12T09:09:57.251Z,97605.17
2019-05-12T09:11:04.868Z,97606.77
2019-05-12T09:12:13.994Z,97613.06
2019-05-12T09:13:23.452Z,97613.74
2019-05-12T09:14:33.515Z,97614.34
2019-05-12T09:15:40.508Z,97613.23
2019-05-12T09:16:48.095Z,97607.90
2019-05-12T09:17:56.957Z,97599.51
2019-05-12T09:19:05.080Z,97609.25
2019-05-12T09:20:14.226Z,97614.25
2019-05-12T09:21:25.294Z,97603.80
2019-05-12T09:22:31.124Z,97620.48
2019-05-12T09:23:41.176Z,97624.22
2019-05-12T09:24:48.023Z,97615.41
2019-05-12T09:25:57.414Z,97617.92
2019-05-12T09:27:08.689Z,97626.38
2019-05-12T09:28:14.215Z,97621.11
2019-05-12T09:29:21.835Z,97618.73
2019-05-12T09:30:33.729Z,97618.54
2019-05-12T09:31:40.861Z,97621.72
2019-05-12T09:32:50.288Z,97623.70
2019-05-12T09:33:57.928Z,97629.90
2019-05-12T09:35:05.672Z,97625.84
2019-05-12T09:36:19.713Z,97632.55
2019-05-12T09:37:24.045Z,97628.48
2019-05-12T09:38:33.235Z,97632.38
2019-05-12T09:39:43.653Z,97627.08
2019-05-12T09:40:52.820Z,97632.56
2019-05-12T09:42:00.579Z,97641.55
2019-05-12T09:43:10.597Z,97641.94
2019-05-12T09:44:20.258Z,97645.74
2019-05-12T09:45:26.803Z,97640.47
2019-05-12T09:46:37.653Z,97648.25
2019-05-12T09:47:43.796Z,97652.09
2019-05-12T09:48:52.959Z,97653.44
2019-05-12T09:50:00.658Z,97660.34
2019-05-12T09:51:08.247Z,97653.44
2019-05-12T09:52:22.231Z,97657.41
2019-05-12T09:53:25.216Z,97656.20
2019-05-12T09:54:35.382Z,97656.74
2019-05-12T09:55:43.798Z,97654.69
2019-05-12T09:56:55.466Z,97656.56
2019-05-12T09:58:03.958Z,97655.72
2019-05-12T09:59:20.772Z,97659.50
2019-05-12T10:00:20.910Z,97658.12
2019-05-12T10:01:29.359Z,97665.28
2019-05-12T10:02:37.798Z,97665.52
2019-05-12T10:03:45.399Z,97667.00
2019-05-12T10:04:56.343Z,97655.54
2019-05-12T10:06:03.756Z,97664.91
2019-05-12T10:07:11.473Z,97667.34
2019-05-12T10:08:19.062Z,97660.66
2019-05-12T10:09:26.645Z,97660.03
2019-05-12T10:10:38.967Z,97660.70
2019-05-12T10:11:44.731Z,97668.20
2019-05-12T10:12:53.576Z,97655.06
2019-05-12T10:14:06.357Z,97656.02
2019-05-12T10:15:13.542Z,97671.31
2019-05-12T10:16:20.943Z,97665.48
2019-05-12T10:17:30.352Z,97671.81
2019-05-12T10:18:43.015Z,97672.94
2019-05-12T10:19:48.468Z,97675.91
2019-05-12T10:20:56.417Z,97677.20
2019-05-12T10:22:04.029Z,97674.32
2019-05-12T10:23:18.069Z,97673.94
2019-05-12T10:24:20.896Z,97679.13
2019-05-12T10:25:30.613Z,97675.62
2019-05-12T10:26:41.094Z,97670.80
2019-05-12T10:27:47.104Z,97683.78
2019-05-12T10:28:58.194Z,97680.27
2019-05-12T10:30:12.364Z,97679.22
2019-05-12T10:31:18.464Z,97672.27
2019-05-12T10:32:24.684Z,97673.41
2019-05-12T10:33:33.809Z,97678.05
2019-05-12T10:34:41.548Z,97672.59
2019-05-12T10:35:49.150Z,97680.94
2019-05-12T10:36:56.778Z,97675.86
2019-05-12T10:38:09.162Z,97674.09
2019-05-12T10:39:13.667Z,97682.38
2019-05-12T10:40:23.333Z,97690.70
2019-05-12T10:41:31.023Z,97689.98
2019-05-12T10:42:39.722Z,97687.47
2019-05-12T10:43:53.186Z,97688.16
2019-05-12T10:44:57.575Z,97696.98
2019-05-12T10:46:05.191Z,97691.33
2019-05-12T10:47:13.487Z,97697.28
2019-05-12T10:48:23.207Z,97702.35
2019-05-12T10:49:30.471Z,97708.39
2019-05-12T10:50:38.057Z,97703.10
2019-05-12T10:51:47.545Z,97705.89
2019-05-12T10:52:54.968Z,97707.02
2019-05-12T10:54:10.859Z,97707.64
2019-05-12T10:55:13.417Z,97702.27
2019-05-12T10:56:23.445Z,97702.38
2019-05-12T10:57:30.460Z,97692.51
2019-05-12T10:58:38.077Z,97689.92
2019-05-12T10:59:48.697Z,97690.64
2019-05-12T11:00:59.094Z,97690.52
2019-05-12T11:02:04.252Z,97700.00
2019-05-12T11:03:14.645Z,97692.17
2019-05-12T11:04:23.434Z,97704.72
2019-05-12T11:05:34.006Z,97704.31
2019-05-12T11:06:44.766Z,97696.59
2019-05-12T11:07:51.168Z,97698.51
2019-05-12T11:08:58.784Z,97704.86
2019-05-12T11:10:15.509Z,97708.48
2019-05-12T11:11:16.507Z,97704.86
2019-05-12T11:12:28.923Z,97699.52
2019-05-12T11:13:33.828Z,97711.41
2019-05-12T11:14:43.413Z,97707.41
2019-05-12T11:15:50.892Z,97709.83
2019-05-12T11:17:02.232Z,97706.08
2019-05-12T11:18:11.982Z,97703.19
2019-05-12T11:19:19.556Z,97702.89
2019-05-12T11:20:28.104Z,97699.50
2019-05-12T11:21:35.718Z,97699.95
2019-05-12T11:22:43.923Z,97697.77
2019-05-12T11:23:51.494Z,97691.59
2019-05-12T11:24:59.095Z,97697.48
2019-05-12T11:26:06.695Z,97696.03
2019-05-12T11:27:14.265Z,97699.45
2019-05-12T11:28:24.270Z,97698.08
2019-05-12T11:29:44.850Z,97695.57
2019-05-12T11:30:40.472Z,97695.14
2019-05-12T11:31:48.091Z,97697.34
2019-05-12T11:32:55.660Z,97703.52
2019-05-12T11:34:04.801Z,97704.06
2019-05-12T11:35:14.234Z,97696.77
2019-05-12T11:36:24.115Z,97698.94
2019-05-12T11:37:33.842Z,97698.52
2019-05-12T11:38:41.242Z,97695.84
2019-05-12T11:39:48.872Z,97691.01
2019-05-12T11:40:56.575Z,97697.02
2019-05-12T11:42:04.420Z,97690.30
2019-05-12T11:43:14.361Z,97699.28
2019-05-12T11:44:23.214Z,97696.47
2019-05-12T11:45:33.507Z,97688.22
2019-05-12T11:46:40.423Z,97690.14
2019-05-12T11:47:48.098Z,97706.33
2019-05-12T11:48:55.772Z,97707.39
2019-05-12T11:50:08.027Z,97706.23
2019-05-12T11:51:14.440Z,97708.16
2019-05-12T11:52:24.040Z,97711.03
2019-05-12T11:53:32.861Z,97711.61
2019-05-12T11:54:46.417Z,97709.16
2019-05-12T11:55:50.579Z,97704.55
2019-05-12T11:56:58.241Z,97697.30
2019-05-12T11:58:11.306Z,97706.12
2019-05-12T11:59:15.374Z,97704.38
2019-05-12T12:00:24.614Z,97706.16
2019-05-12T12:01:34.447Z,97707.97
2019-05-12T12:02:43.651Z,97706.56
2019-05-12T12:03:50.954Z,97707.31
2019-05-12T12:04:58.568Z,97706.73
2019-05-12T12:06:06.138Z,97712.85
2019-05-12T12:07:14.324Z,97708.92
2019-05-12T12:08:26.242Z,97711.93
2019-05-12T12:09:31.226Z,97699.32
2019-05-12T12:10:40.001Z,97697.45
2019-05-12T12:11:47.684Z,97693.88
2019-05-12T12:12:55.290Z,97692.00
2019-05-12T12:14:08.444Z,97700.67
2019-05-12T12:15:13.804Z,97698.06
2019-05-12T12:16:23.575Z,97698.41
2019-05-12T12:17:32.627Z,97694.97
2019-05-12T12:18:39.989Z,97709.34
2019-05-12T12:19:47.553Z,97708.17
2019-05-12T12:21:02.743Z,97710.77
2019-05-12T12:22:04.504Z,97715.09
2019-05-12T12:23:13.924Z,97710.67
2019-05-12T12:24:29.398Z,97715.91
2019-05-12T12:25:33.889Z,97710.69
2019-05-12T12:26:41.006Z,97713.63
2019-05-12T12:27:48.642Z,97704.32
2019-05-12T12:28:57.242Z,97708.13
2019-05-12T12:30:15.672Z,97711.44
2019-05-12T12:31:14.654Z,97709.53
2019-05-12T12:32:23.313Z,97714.61
2019-05-12T12:33:35.998Z,97717.59
2019-05-12T12:34:43.903Z,97717.07
2019-05-12T12:35:55.860Z,97713.64
2019-05-12T12:36:59.935Z,97711.94
2019-05-12T12:38:08.783Z,97709.78
2019-05-12T12:39:16.410Z,97723.95
2019-05-12T12:40:24.040Z,97722.72
2019-05-12T12:41:31.659Z,97721.41
2019-05-12T12:42:44.084Z,97724.84
2019-05-12T12:43:48.661Z,97720.52
2019-05-12T12:44:58.861Z,97715.73
2019-05-12T12:46:16.406Z,97718.78
2019-05-12T12:47:19.760Z,97711.73
2019-05-12T12:48:29.773Z,97718.94
2019-05-12T12:49:39.929Z,97727.27
2019-05-12T12:50:46.130Z,97728.21
2019-05-12T12:51:53.776Z,97725.78
2019-05-12T12:53:01.436Z,97732.45
2019-05-12T12:54:09.088Z,97733.29
2019-05-12T12:55:16.706Z,97731.09
2019-05-12T12:56:29.780Z,97732.73
2019-05-12T12:57:33.670Z,97740.77
2019-05-12T12:58:41.231Z,97737.48
2019-05-12T12:59:51.270Z,97744.02
2019-05-12T13:00:58.562Z,97732.77
2019-05-12T13:02:09.141Z,97743.47
2019-05-12T13:03:19.773Z,97743.69
2019-05-12T13:04:24.957Z,97747.50
2019-05-12T13:05:34.551Z,97738.53
2019-05-12T13:06:43.783Z,97741.52
2019-05-12T13:07:53.466Z,97752.50
2019-05-12T13:09:01.314Z,97748.34
2019-05-12T13:10:10.112Z,97743.69
2019-05-12T13:11:30.442Z,97745.48
2019-05-12T13:12:28.183Z,97743.82
2019-05-12T13:13:35.821Z,97742.31
2019-05-12T13:14:44.390Z,97746.09
2019-05-12T13:15:53.473Z,97748.23
2019-05-12T13:17:01.274Z,97745.61
2019-05-12T13:18:09.375Z,97747.77
2019-05-12T13:19:17.349Z,97750.73
2019-05-12T13:20:25.241Z,97753.23
2019-05-12T13:21:33.595Z,97753.59
2019-05-12T13:22:41.307Z,97750.97
2019-05-12T13:23:51.098Z,97752.88
2019-05-12T13:25:03.621Z,97753.72
2019-05-12T13:26:07.525Z,97756.34